sensor_id;sensor_type;location;lat;lon;timestamp;P1;durP1;ratioP1;P2;durP2;ratioP2
75593;SDS011;64176;49.156;7.810;2022-11-04T00:01:20;1.70;;;1.25;;
75593;SDS011;64176;49.156;7.810;2022-11-04T00:04:05;1.55;;;1.40;;
75593;SDS011;64176;49.156;7.810;2022-11-04T00:06:52;1.63;;;1.02;;
75593;SDS011;64176;49.156;7.810;2022-11-04T00:09:36;3.58;;;1.10;;
75593;SDS011;64176;49.156;7.810;2022-11-04T00:12:23;2.95;;;1.40;;
75593;SDS011;64176;49.156;7.810;2022-11-04T00:15:09;2.15;;;1.40;;
75593;SDS011;64176;49.156;7.810;2022-11-04T00:18:12;2.50;;;1.17;;
75593;SDS011;64176;49.156;7.810;2022-11-04T00:20:56;3.15;;;1.20;;
75593;SDS011;64176;49.156;7.810;2022-11-04T00:23:59;5.63;;;1.40;;
75593;SDS011;64176;49.156;7.810;2022-11-04T00:27:02;3.58;;;1.40;;
75593;SDS011;64176;49.156;7.810;2022-11-04T00:30:06;1.70;;;1.20;;
75593;SDS011;64176;49.156;7.810;2022-11-04T00:32:52;1.88;;;1.33;;
75593;SDS011;64176;49.156;7.810;2022-11-04T00:35:55;1.42;;;1.10;;
75593;SDS011;64176;49.156;7.810;2022-11-04T00:38:40;2.78;;;1.65;;
75593;SDS011;64176;49.156;7.810;2022-11-04T00:41:27;1.65;;;1.10;;
75593;SDS011;64176;49.156;7.810;2022-11-04T00:44:12;3.03;;;1.15;;
75593;SDS011;64176;49.156;7.810;2022-11-04T00:46:56;3.70;;;1.30;;
75593;SDS011;64176;49.156;7.810;2022-11-04T00:49:45;3.67;;;1.25;;
75593;SDS011;64176;49.156;7.810;2022-11-04T00:52:29;3.47;;;1.17;;
75593;SDS011;64176;49.156;7.810;2022-11-04T00:55:13;2.40;;;1.50;;
75593;SDS011;64176;49.156;7.810;2022-11-04T00:57:57;2.30;;;1.27;;
75593;SDS011;64176;49.156;7.810;2022-11-04T01:00:41;2.80;;;1.15;;
75593;SDS011;64176;49.156;7.810;2022-11-04T01:03:25;3.78;;;1.15;;
75593;SDS011;64176;49.156;7.810;2022-11-04T01:06:10;2.97;;;1.30;;
75593;SDS011;64176;49.156;7.810;2022-11-04T01:08:58;3.97;;;1.30;;
75593;SDS011;64176;49.156;7.810;2022-11-04T01:11:44;5.13;;;1.30;;
75593;SDS011;64176;49.156;7.810;2022-11-04T01:14:28;2.25;;;1.13;;
75593;SDS011;64176;49.156;7.810;2022-11-04T01:17:15;3.90;;;1.08;;
75593;SDS011;64176;49.156;7.810;2022-11-04T01:19:59;1.67;;;1.40;;
75593;SDS011;64176;49.156;7.810;2022-11-04T01:22:43;2.83;;;1.45;;
75593;SDS011;64176;49.156;7.810;2022-11-04T01:25:27;3.33;;;1.20;;
75593;SDS011;64176;49.156;7.810;2022-11-04T01:28:14;2.83;;;1.30;;
75593;SDS011;64176;49.156;7.810;2022-11-04T01:31:08;2.63;;;1.00;;
75593;SDS011;64176;49.156;7.810;2022-11-04T01:33:54;4.63;;;1.10;;
75593;SDS011;64176;49.156;7.810;2022-11-04T01:36:38;4.00;;;1.10;;
75593;SDS011;64176;49.156;7.810;2022-11-04T01:39:23;3.90;;;2.17;;
75593;SDS011;64176;49.156;7.810;2022-11-04T01:42:08;4.07;;;1.55;;
75593;SDS011;64176;49.156;7.810;2022-11-04T01:44:57;5.32;;;1.48;;
75593;SDS011;64176;49.156;7.810;2022-11-04T01:47:45;3.53;;;1.23;;
75593;SDS011;64176;49.156;7.810;2022-11-04T01:50:47;1.65;;;1.10;;
75593;SDS011;64176;49.156;7.810;2022-11-04T01:53:35;8.55;;;1.42;;
75593;SDS011;64176;49.156;7.810;2022-11-04T01:56:22;3.42;;;1.13;;
75593;SDS011;64176;49.156;7.810;2022-11-04T01:59:11;3.90;;;1.05;;
75593;SDS011;64176;49.156;7.810;2022-11-04T02:02:01;2.70;;;1.08;;
75593;SDS011;64176;49.156;7.810;2022-11-04T02:04:46;3.80;;;1.30;;
75593;SDS011;64176;49.156;7.810;2022-11-04T02:07:33;1.92;;;1.05;;
75593;SDS011;64176;49.156;7.810;2022-11-04T02:10:19;3.42;;;1.10;;
75593;SDS011;64176;49.156;7.810;2022-11-04T02:13:07;3.90;;;1.05;;
75593;SDS011;64176;49.156;7.810;2022-11-04T02:22:14;3.05;;;1.20;;
75593;SDS011;64176;49.156;7.810;2022-11-04T02:31:13;5.40;;;1.48;;
75593;SDS011;64176;49.156;7.810;2022-11-04T02:34:10;2.78;;;1.00;;
75593;SDS011;64176;49.156;7.810;2022-11-04T02:40:07;5.05;;;1.08;;
75593;SDS011;64176;49.156;7.810;2022-11-04T02:43:24;4.85;;;1.40;;
75593;SDS011;64176;49.156;7.810;2022-11-04T02:46:34;2.70;;;1.40;;
75593;SDS011;64176;49.156;7.810;2022-11-04T02:52:25;4.70;;;1.73;;
75593;SDS011;64176;49.156;7.810;2022-11-04T02:55:21;1.98;;;0.73;;
75593;SDS011;64176;49.156;7.810;2022-11-04T02:58:12;2.50;;;0.98;;
75593;SDS011;64176;49.156;7.810;2022-11-04T03:00:59;4.95;;;1.20;;
75593;SDS011;64176;49.156;7.810;2022-11-04T03:03:47;3.95;;;1.63;;
75593;SDS011;64176;49.156;7.810;2022-11-04T03:06:35;3.30;;;1.23;;
75593;SDS011;64176;49.156;7.810;2022-11-04T03:09:21;1.30;;;0.75;;
75593;SDS011;64176;49.156;7.810;2022-11-04T03:12:08;5.30;;;0.85;;
75593;SDS011;64176;49.156;7.810;2022-11-04T03:15:00;2.45;;;0.75;;
75593;SDS011;64176;49.156;7.810;2022-11-04T03:18:35;3.03;;;1.40;;
75593;SDS011;64176;49.156;7.810;2022-11-04T03:21:05;3.47;;;1.00;;
75593;SDS011;64176;49.156;7.810;2022-11-04T03:23:52;5.82;;;0.80;;
75593;SDS011;64176;49.156;7.810;2022-11-04T03:26:41;1.55;;;1.08;;
75593;SDS011;64176;49.156;7.810;2022-11-04T03:29:31;3.80;;;0.80;;
75593;SDS011;64176;49.156;7.810;2022-11-04T03:32:35;3.25;;;1.10;;
75593;SDS011;64176;49.156;7.810;2022-11-04T03:35:25;4.97;;;0.88;;
75593;SDS011;64176;49.156;7.810;2022-11-04T03:38:11;3.60;;;0.82;;
75593;SDS011;64176;49.156;7.810;2022-11-04T03:40:56;1.27;;;0.90;;
75593;SDS011;64176;49.156;7.810;2022-11-04T03:43:42;2.08;;;0.85;;
75593;SDS011;64176;49.156;7.810;2022-11-04T03:46:26;2.28;;;0.80;;
75593;SDS011;64176;49.156;7.810;2022-11-04T03:49:11;1.40;;;0.90;;
75593;SDS011;64176;49.156;7.810;2022-11-04T03:51:56;1.73;;;0.70;;
75593;SDS011;64176;49.156;7.810;2022-11-04T03:54:40;3.40;;;1.20;;
75593;SDS011;64176;49.156;7.810;2022-11-04T04:00:19;3.70;;;0.85;;
75593;SDS011;64176;49.156;7.810;2022-11-04T04:03:14;3.63;;;1.48;;
75593;SDS011;64176;49.156;7.810;2022-11-04T04:06:17;2.75;;;1.40;;
75593;SDS011;64176;49.156;7.810;2022-11-04T04:09:09;4.60;;;1.15;;
75593;SDS011;64176;49.156;7.810;2022-11-04T04:12:09;4.45;;;1.73;;
75593;SDS011;64176;49.156;7.810;2022-11-04T04:15:05;4.18;;;1.00;;
75593;SDS011;64176;49.156;7.810;2022-11-04T04:17:55;5.25;;;1.40;;
75593;SDS011;64176;49.156;7.810;2022-11-04T04:20:45;4.00;;;1.73;;
75593;SDS011;64176;49.156;7.810;2022-11-04T04:23:32;7.63;;;1.35;;
75593;SDS011;64176;49.156;7.810;2022-11-04T04:29:41;4.07;;;0.90;;
75593;SDS011;64176;49.156;7.810;2022-11-04T04:35:15;2.35;;;1.30;;
75593;SDS011;64176;49.156;7.810;2022-11-04T04:38:25;2.67;;;1.10;;
75593;SDS011;64176;49.156;7.810;2022-11-04T04:41:33;2.40;;;1.63;;
75593;SDS011;64176;49.156;7.810;2022-11-04T04:44:35;5.03;;;1.50;;
75593;SDS011;64176;49.156;7.810;2022-11-04T04:47:43;6.35;;;1.65;;
75593;SDS011;64176;49.156;7.810;2022-11-04T04:50:34;4.43;;;1.60;;
75593;SDS011;64176;49.156;7.810;2022-11-04T04:53:20;4.97;;;2.10;;
75593;SDS011;64176;49.156;7.810;2022-11-04T04:56:04;2.28;;;1.30;;
75593;SDS011;64176;49.156;7.810;2022-11-04T04:58:49;4.95;;;1.17;;
75593;SDS011;64176;49.156;7.810;2022-11-04T05:01:32;4.05;;;1.48;;
75593;SDS011;64176;49.156;7.810;2022-11-04T05:04:17;4.13;;;1.42;;
75593;SDS011;64176;49.156;7.810;2022-11-04T05:07:01;7.97;;;1.65;;
75593;SDS011;64176;49.156;7.810;2022-11-04T05:09:44;3.88;;;1.40;;
75593;SDS011;64176;49.156;7.810;2022-11-04T05:12:33;3.25;;;1.20;;
75593;SDS011;64176;49.156;7.810;2022-11-04T05:15:36;4.20;;;1.35;;
75593;SDS011;64176;49.156;7.810;2022-11-04T05:18:20;5.43;;;1.95;;
75593;SDS011;64176;49.156;7.810;2022-11-04T05:21:05;5.28;;;1.60;;
75593;SDS011;64176;49.156;7.810;2022-11-04T05:23:53;4.57;;;1.80;;
75593;SDS011;64176;49.156;7.810;2022-11-04T05:26:40;2.80;;;1.13;;
75593;SDS011;64176;49.156;7.810;2022-11-04T05:29:26;4.07;;;1.25;;
75593;SDS011;64176;49.156;7.810;2022-11-04T05:32:11;4.10;;;1.48;;
75593;SDS011;64176;49.156;7.810;2022-11-04T05:34:54;2.53;;;1.25;;
75593;SDS011;64176;49.156;7.810;2022-11-04T05:37:38;4.10;;;1.15;;
75593;SDS011;64176;49.156;7.810;2022-11-04T05:40:25;5.97;;;2.15;;
75593;SDS011;64176;49.156;7.810;2022-11-04T05:43:10;3.65;;;1.95;;
75593;SDS011;64176;49.156;7.810;2022-11-04T05:45:54;4.45;;;2.08;;
75593;SDS011;64176;49.156;7.810;2022-11-04T05:48:38;4.68;;;2.53;;
75593;SDS011;64176;49.156;7.810;2022-11-04T05:51:25;4.97;;;2.50;;
75593;SDS011;64176;49.156;7.810;2022-11-04T05:54:10;9.38;;;3.00;;
75593;SDS011;64176;49.156;7.810;2022-11-04T05:56:54;5.00;;;2.47;;
75593;SDS011;64176;49.156;7.810;2022-11-04T05:59:38;10.27;;;3.60;;
75593;SDS011;64176;49.156;7.810;2022-11-04T06:02:22;3.85;;;2.10;;
75593;SDS011;64176;49.156;7.810;2022-11-04T06:05:06;6.85;;;3.70;;
75593;SDS011;64176;49.156;7.810;2022-11-04T06:07:51;5.65;;;2.85;;
75593;SDS011;64176;49.156;7.810;2022-11-04T06:10:35;3.20;;;2.15;;
75593;SDS011;64176;49.156;7.810;2022-11-04T06:13:19;5.18;;;3.13;;
75593;SDS011;64176;49.156;7.810;2022-11-04T06:16:03;4.30;;;2.08;;
75593;SDS011;64176;49.156;7.810;2022-11-04T06:18:48;8.02;;;1.65;;
75593;SDS011;64176;49.156;7.810;2022-11-04T06:21:32;10.40;;;8.00;;
75593;SDS011;64176;49.156;7.810;2022-11-04T06:24:19;11.52;;;5.82;;
75593;SDS011;64176;49.156;7.810;2022-11-04T06:27:05;7.47;;;4.53;;
75593;SDS011;64176;49.156;7.810;2022-11-04T06:29:49;6.18;;;4.15;;
75593;SDS011;64176;49.156;7.810;2022-11-04T06:32:35;11.27;;;3.70;;
75593;SDS011;64176;49.156;7.810;2022-11-04T06:35:19;10.55;;;4.38;;
75593;SDS011;64176;49.156;7.810;2022-11-04T06:38:05;7.82;;;3.85;;
75593;SDS011;64176;49.156;7.810;2022-11-04T06:40:49;10.57;;;5.13;;
75593;SDS011;64176;49.156;7.810;2022-11-04T06:43:33;12.10;;;4.95;;
75593;SDS011;64176;49.156;7.810;2022-11-04T06:46:37;11.48;;;7.05;;
75593;SDS011;64176;49.156;7.810;2022-11-04T06:49:25;5.72;;;3.00;;
75593;SDS011;64176;49.156;7.810;2022-11-04T06:52:11;6.22;;;3.08;;
75593;SDS011;64176;49.156;7.810;2022-11-04T06:54:55;7.05;;;4.50;;
75593;SDS011;64176;49.156;7.810;2022-11-04T06:57:39;6.75;;;4.63;;
75593;SDS011;64176;49.156;7.810;2022-11-04T07:00:23;8.70;;;5.32;;
75593;SDS011;64176;49.156;7.810;2022-11-04T07:03:08;9.70;;;6.57;;
75593;SDS011;64176;49.156;7.810;2022-11-04T07:05:53;13.75;;;6.03;;
75593;SDS011;64176;49.156;7.810;2022-11-04T07:08:37;7.40;;;3.58;;
75593;SDS011;64176;49.156;7.810;2022-11-04T07:11:21;6.65;;;4.20;;
75593;SDS011;64176;49.156;7.810;2022-11-04T07:14:05;11.15;;;6.72;;
75593;SDS011;64176;49.156;7.810;2022-11-04T07:16:51;8.93;;;4.40;;
75593;SDS011;64176;49.156;7.810;2022-11-04T07:19:38;4.28;;;2.45;;
75593;SDS011;64176;49.156;7.810;2022-11-04T07:22:21;6.63;;;2.15;;
75593;SDS011;64176;49.156;7.810;2022-11-04T07:25:06;5.05;;;2.72;;
75593;SDS011;64176;49.156;7.810;2022-11-04T07:27:50;5.00;;;1.88;;
75593;SDS011;64176;49.156;7.810;2022-11-04T07:30:36;4.05;;;2.20;;
75593;SDS011;64176;49.156;7.810;2022-11-04T07:33:20;5.50;;;2.60;;
75593;SDS011;64176;49.156;7.810;2022-11-04T07:36:05;6.85;;;2.65;;
75593;SDS011;64176;49.156;7.810;2022-11-04T07:41:35;5.97;;;2.80;;
75593;SDS011;64176;49.156;7.810;2022-11-04T07:44:19;4.70;;;3.13;;
75593;SDS011;64176;49.156;7.810;2022-11-04T07:47:05;8.00;;;4.07;;
75593;SDS011;64176;49.156;7.810;2022-11-04T07:49:49;6.65;;;4.78;;
75593;SDS011;64176;49.156;7.810;2022-11-04T07:52:34;8.70;;;4.00;;
75593;SDS011;64176;49.156;7.810;2022-11-04T07:55:18;8.80;;;3.83;;
75593;SDS011;64176;49.156;7.810;2022-11-04T07:58:02;6.63;;;3.90;;
75593;SDS011;64176;49.156;7.810;2022-11-04T08:00:46;4.80;;;3.38;;
75593;SDS011;64176;49.156;7.810;2022-11-04T08:03:31;5.47;;;2.65;;
75593;SDS011;64176;49.156;7.810;2022-11-04T08:06:17;5.40;;;2.65;;
75593;SDS011;64176;49.156;7.810;2022-11-04T08:09:02;6.30;;;2.80;;
75593;SDS011;64176;49.156;7.810;2022-11-04T08:11:47;8.40;;;3.22;;
75593;SDS011;64176;49.156;7.810;2022-11-04T08:14:31;7.25;;;2.92;;
75593;SDS011;64176;49.156;7.810;2022-11-04T08:17:16;6.15;;;3.58;;
75593;SDS011;64176;49.156;7.810;2022-11-04T08:20:00;5.05;;;3.10;;
75593;SDS011;64176;49.156;7.810;2022-11-04T08:22:44;6.20;;;2.88;;
75593;SDS011;64176;49.156;7.810;2022-11-04T08:25:28;5.47;;;3.17;;
75593;SDS011;64176;49.156;7.810;2022-11-04T08:28:12;7.05;;;3.95;;
75593;SDS011;64176;49.156;7.810;2022-11-04T08:31:01;7.78;;;3.58;;
75593;SDS011;64176;49.156;7.810;2022-11-04T08:33:51;4.75;;;3.35;;
75593;SDS011;64176;49.156;7.810;2022-11-04T08:36:37;5.68;;;3.88;;
75593;SDS011;64176;49.156;7.810;2022-11-04T08:39:23;9.65;;;5.45;;
75593;SDS011;64176;49.156;7.810;2022-11-04T08:42:07;9.20;;;5.53;;
75593;SDS011;64176;49.156;7.810;2022-11-04T08:44:52;11.45;;;6.03;;
75593;SDS011;64176;49.156;7.810;2022-11-04T08:47:37;11.48;;;6.20;;
75593;SDS011;64176;49.156;7.810;2022-11-04T08:50:21;11.15;;;5.97;;
75593;SDS011;64176;49.156;7.810;2022-11-04T08:53:10;9.98;;;6.03;;
75593;SDS011;64176;49.156;7.810;2022-11-04T08:55:54;8.73;;;6.88;;
75593;SDS011;64176;49.156;7.810;2022-11-04T08:58:42;5.25;;;4.25;;
75593;SDS011;64176;49.156;7.810;2022-11-04T09:01:27;4.97;;;2.92;;
75593;SDS011;64176;49.156;7.810;2022-11-04T09:04:12;5.10;;;2.90;;
75593;SDS011;64176;49.156;7.810;2022-11-04T09:07:00;10.88;;;3.97;;
75593;SDS011;64176;49.156;7.810;2022-11-04T09:09:45;9.40;;;3.60;;
75593;SDS011;64176;49.156;7.810;2022-11-04T09:12:29;5.68;;;4.30;;
75593;SDS011;64176;49.156;7.810;2022-11-04T09:15:13;6.65;;;4.90;;
75593;SDS011;64176;49.156;7.810;2022-11-04T09:17:57;5.20;;;3.00;;
75593;SDS011;64176;49.156;7.810;2022-11-04T09:20:41;3.17;;;2.70;;
75593;SDS011;64176;49.156;7.810;2022-11-04T09:23:25;4.40;;;2.70;;
75593;SDS011;64176;49.156;7.810;2022-11-04T09:26:10;3.30;;;2.33;;
75593;SDS011;64176;49.156;7.810;2022-11-04T09:28:57;3.47;;;2.10;;
75593;SDS011;64176;49.156;7.810;2022-11-04T09:31:41;5.97;;;1.95;;
75593;SDS011;64176;49.156;7.810;2022-11-04T09:34:26;7.05;;;1.63;;
75593;SDS011;64176;49.156;7.810;2022-11-04T09:37:09;9.73;;;1.33;;
75593;SDS011;64176;49.156;7.810;2022-11-04T09:39:56;3.38;;;0.90;;
75593;SDS011;64176;49.156;7.810;2022-11-04T09:42:44;5.45;;;2.05;;
75593;SDS011;64176;49.156;7.810;2022-11-04T09:45:34;7.55;;;1.58;;
75593;SDS011;64176;49.156;7.810;2022-11-04T09:51:11;1.45;;;1.30;;
75593;SDS011;64176;49.156;7.810;2022-11-04T09:54:01;5.18;;;2.45;;
75593;SDS011;64176;49.156;7.810;2022-11-04T09:56:51;3.95;;;1.83;;
75593;SDS011;64176;49.156;7.810;2022-11-04T09:59:42;2.97;;;1.92;;
75593;SDS011;64176;49.156;7.810;2022-11-04T10:17:57;8.40;;;3.30;;
75593;SDS011;64176;49.156;7.810;2022-11-04T10:32:32;6.25;;;2.70;;
75593;SDS011;64176;49.156;7.810;2022-11-04T10:35:22;4.18;;;2.20;;
75593;SDS011;64176;49.156;7.810;2022-11-04T10:41:39;4.15;;;2.00;;
75593;SDS011;64176;49.156;7.810;2022-11-04T10:50:30;22.33;;;2.22;;
75593;SDS011;64176;49.156;7.810;2022-11-04T10:53:24;3.35;;;1.65;;
75593;SDS011;64176;49.156;7.810;2022-11-04T10:56:53;4.28;;;1.60;;
75593;SDS011;64176;49.156;7.810;2022-11-04T11:08:14;4.10;;;1.23;;
75593;SDS011;64176;49.156;7.810;2022-11-04T11:11:10;2.45;;;1.30;;
75593;SDS011;64176;49.156;7.810;2022-11-04T11:13:56;2.00;;;1.08;;
75593;SDS011;64176;49.156;7.810;2022-11-04T11:19:28;2.72;;;1.50;;
75593;SDS011;64176;49.156;7.810;2022-11-04T11:25:21;4.70;;;1.88;;
75593;SDS011;64176;49.156;7.810;2022-11-04T11:28:22;1.83;;;0.95;;
75593;SDS011;64176;49.156;7.810;2022-11-04T11:31:10;1.30;;;0.63;;
75593;SDS011;64176;49.156;7.810;2022-11-04T11:34:06;4.65;;;1.60;;
75593;SDS011;64176;49.156;7.810;2022-11-04T11:37:01;2.78;;;1.73;;
75593;SDS011;64176;49.156;7.810;2022-11-04T11:39:47;2.97;;;1.40;;
75593;SDS011;64176;49.156;7.810;2022-11-04T11:42:31;3.85;;;1.70;;
75593;SDS011;64176;49.156;7.810;2022-11-04T11:45:17;4.15;;;2.05;;
75593;SDS011;64176;49.156;7.810;2022-11-04T11:48:04;6.43;;;1.73;;
75593;SDS011;64176;49.156;7.810;2022-11-04T11:51:22;2.83;;;1.40;;
75593;SDS011;64176;49.156;7.810;2022-11-04T11:54:14;4.45;;;2.00;;
75593;SDS011;64176;49.156;7.810;2022-11-04T11:57:21;4.68;;;1.25;;
75593;SDS011;64176;49.156;7.810;2022-11-04T12:00:08;4.05;;;2.75;;
75593;SDS011;64176;49.156;7.810;2022-11-04T12:03:10;3.00;;;1.85;;
75593;SDS011;64176;49.156;7.810;2022-11-04T12:05:59;5.57;;;1.10;;
75593;SDS011;64176;49.156;7.810;2022-11-04T12:27:20;7.18;;;1.15;;
75593;SDS011;64176;49.156;7.810;2022-11-04T12:30:12;2.90;;;1.23;;
75593;SDS011;64176;49.156;7.810;2022-11-04T12:39:25;7.90;;;2.10;;
75593;SDS011;64176;49.156;7.810;2022-11-04T12:54:52;5.13;;;2.40;;
75593;SDS011;64176;49.156;7.810;2022-11-04T13:00:56;4.28;;;1.52;;
75593;SDS011;64176;49.156;7.810;2022-11-04T13:03:48;2.63;;;1.00;;
75593;SDS011;64176;49.156;7.810;2022-11-04T13:12:20;3.15;;;1.40;;
75593;SDS011;64176;49.156;7.810;2022-11-04T13:15:15;1.30;;;0.90;;
75593;SDS011;64176;49.156;7.810;2022-11-04T13:18:04;5.95;;;1.70;;
75593;SDS011;64176;49.156;7.810;2022-11-04T13:20:58;3.90;;;1.73;;
75593;SDS011;64176;49.156;7.810;2022-11-04T13:23:53;3.72;;;1.85;;
75593;SDS011;64176;49.156;7.810;2022-11-04T13:26:41;3.42;;;1.40;;
75593;SDS011;64176;49.156;7.810;2022-11-04T13:29:26;2.70;;;2.03;;
75593;SDS011;64176;49.156;7.810;2022-11-04T13:32:23;5.05;;;2.60;;
75593;SDS011;64176;49.156;7.810;2022-11-04T13:35:48;2.70;;;1.08;;
75593;SDS011;64176;49.156;7.810;2022-11-04T13:38:37;2.88;;;1.10;;
75593;SDS011;64176;49.156;7.810;2022-11-04T13:47:22;3.03;;;1.00;;
75593;SDS011;64176;49.156;7.810;2022-11-04T13:53:19;4.13;;;1.65;;
75593;SDS011;64176;49.156;7.810;2022-11-04T13:56:03;5.45;;;1.65;;
75593;SDS011;64176;49.156;7.810;2022-11-04T13:58:50;3.05;;;1.83;;
75593;SDS011;64176;49.156;7.810;2022-11-04T14:01:37;3.13;;;2.03;;
75593;SDS011;64176;49.156;7.810;2022-11-04T14:04:28;1.70;;;0.90;;
75593;SDS011;64176;49.156;7.810;2022-11-04T14:07:16;2.67;;;1.05;;
75593;SDS011;64176;49.156;7.810;2022-11-04T14:10:01;2.47;;;1.20;;
75593;SDS011;64176;49.156;7.810;2022-11-04T14:12:46;3.75;;;1.35;;
75593;SDS011;64176;49.156;7.810;2022-11-04T14:15:57;2.35;;;1.30;;
75593;SDS011;64176;49.156;7.810;2022-11-04T14:18:49;1.92;;;1.05;;
75593;SDS011;64176;49.156;7.810;2022-11-04T14:24:58;1.23;;;0.93;;
75593;SDS011;64176;49.156;7.810;2022-11-04T14:30:54;4.88;;;1.52;;
75593;SDS011;64176;49.156;7.810;2022-11-04T14:36:34;8.20;;;3.97;;
75593;SDS011;64176;49.156;7.810;2022-11-04T14:39:22;5.70;;;3.28;;
75593;SDS011;64176;49.156;7.810;2022-11-04T14:42:11;2.85;;;1.85;;
75593;SDS011;64176;49.156;7.810;2022-11-04T14:44:56;6.65;;;1.85;;
75593;SDS011;64176;49.156;7.810;2022-11-04T14:47:41;4.88;;;2.35;;
75593;SDS011;64176;49.156;7.810;2022-11-04T14:50:27;2.88;;;1.25;;
75593;SDS011;64176;49.156;7.810;2022-11-04T14:53:13;5.88;;;2.72;;
75593;SDS011;64176;49.156;7.810;2022-11-04T14:56:16;6.40;;;3.13;;
75593;SDS011;64176;49.156;7.810;2022-11-04T14:59:04;7.32;;;4.40;;
75593;SDS011;64176;49.156;7.810;2022-11-04T15:01:49;3.10;;;2.22;;
75593;SDS011;64176;49.156;7.810;2022-11-04T15:04:34;3.80;;;1.85;;
75593;SDS011;64176;49.156;7.810;2022-11-04T15:07:37;5.82;;;2.50;;
75593;SDS011;64176;49.156;7.810;2022-11-04T15:10:23;2.38;;;1.20;;
75593;SDS011;64176;49.156;7.810;2022-11-04T15:13:10;3.60;;;1.70;;
75593;SDS011;64176;49.156;7.810;2022-11-04T15:15:54;5.07;;;2.30;;
75593;SDS011;64176;49.156;7.810;2022-11-04T15:18:40;3.42;;;2.03;;
75593;SDS011;64176;49.156;7.810;2022-11-04T15:21:25;3.17;;;2.00;;
75593;SDS011;64176;49.156;7.810;2022-11-04T15:24:13;11.60;;;2.53;;
75593;SDS011;64176;49.156;7.810;2022-11-04T15:27:03;7.07;;;2.83;;
75593;SDS011;64176;49.156;7.810;2022-11-04T15:29:59;8.77;;;2.55;;
75593;SDS011;64176;49.156;7.810;2022-11-04T15:32:52;4.32;;;1.73;;
75593;SDS011;64176;49.156;7.810;2022-11-04T15:35:37;26.33;;;16.38;;
75593;SDS011;64176;49.156;7.810;2022-11-04T15:38:26;9.95;;;5.60;;
75593;SDS011;64176;49.156;7.810;2022-11-04T15:41:11;8.98;;;5.70;;
75593;SDS011;64176;49.156;7.810;2022-11-04T15:44:17;4.43;;;2.15;;
75593;SDS011;64176;49.156;7.810;2022-11-04T15:50:03;4.80;;;1.92;;
75593;SDS011;64176;49.156;7.810;2022-11-04T15:53:03;4.68;;;2.53;;
75593;SDS011;64176;49.156;7.810;2022-11-04T15:55:53;4.25;;;2.90;;
75593;SDS011;64176;49.156;7.810;2022-11-04T15:58:39;5.97;;;2.95;;
75593;SDS011;64176;49.156;7.810;2022-11-04T16:01:26;4.88;;;2.03;;
75593;SDS011;64176;49.156;7.810;2022-11-04T16:04:11;3.30;;;1.90;;
75593;SDS011;64176;49.156;7.810;2022-11-04T16:07:01;3.50;;;2.53;;
75593;SDS011;64176;49.156;7.810;2022-11-04T16:18:54;5.40;;;4.00;;
75593;SDS011;64176;49.156;7.810;2022-11-04T16:21:40;8.13;;;4.85;;
75593;SDS011;64176;49.156;7.810;2022-11-04T16:24:32;11.50;;;6.75;;
75593;SDS011;64176;49.156;7.810;2022-11-04T16:27:19;10.35;;;5.22;;
75593;SDS011;64176;49.156;7.810;2022-11-04T16:33:05;3.75;;;2.80;;
75593;SDS011;64176;49.156;7.810;2022-11-04T16:35:52;7.07;;;3.70;;
75593;SDS011;64176;49.156;7.810;2022-11-04T16:38:36;5.82;;;3.08;;
75593;SDS011;64176;49.156;7.810;2022-11-04T16:41:23;4.88;;;2.88;;
75593;SDS011;64176;49.156;7.810;2022-11-04T16:44:19;4.85;;;2.40;;
75593;SDS011;64176;49.156;7.810;2022-11-04T16:47:07;4.03;;;2.60;;
75593;SDS011;64176;49.156;7.810;2022-11-04T16:49:52;9.20;;;5.32;;
75593;SDS011;64176;49.156;7.810;2022-11-04T16:52:41;6.18;;;4.20;;
75593;SDS011;64176;49.156;7.810;2022-11-04T16:55:26;11.80;;;7.18;;
75593;SDS011;64176;49.156;7.810;2022-11-04T16:58:13;16.33;;;13.30;;
75593;SDS011;64176;49.156;7.810;2022-11-04T17:01:00;10.15;;;7.53;;
75593;SDS011;64176;49.156;7.810;2022-11-04T17:03:44;8.57;;;7.55;;
75593;SDS011;64176;49.156;7.810;2022-11-04T17:06:28;10.63;;;9.63;;
75593;SDS011;64176;49.156;7.810;2022-11-04T17:09:17;9.95;;;8.80;;
75593;SDS011;64176;49.156;7.810;2022-11-04T17:12:04;6.22;;;4.53;;
75593;SDS011;64176;49.156;7.810;2022-11-04T17:14:48;11.05;;;6.32;;
75593;SDS011;64176;49.156;7.810;2022-11-04T17:17:35;8.40;;;6.85;;
75593;SDS011;64176;49.156;7.810;2022-11-04T17:20:21;14.02;;;8.52;;
75593;SDS011;64176;49.156;7.810;2022-11-04T17:23:06;12.00;;;9.25;;
75593;SDS011;64176;49.156;7.810;2022-11-04T17:25:49;13.63;;;9.75;;
75593;SDS011;64176;49.156;7.810;2022-11-04T17:28:33;15.75;;;9.20;;
75593;SDS011;64176;49.156;7.810;2022-11-04T17:31:18;8.90;;;5.72;;
75593;SDS011;64176;49.156;7.810;2022-11-04T17:34:02;14.70;;;10.43;;
75593;SDS011;64176;49.156;7.810;2022-11-04T17:36:46;12.88;;;9.80;;
75593;SDS011;64176;49.156;7.810;2022-11-04T17:39:30;25.60;;;16.67;;
75593;SDS011;64176;49.156;7.810;2022-11-04T17:42:14;20.33;;;15.25;;
75593;SDS011;64176;49.156;7.810;2022-11-04T17:45:17;11.88;;;7.63;;
75593;SDS011;64176;49.156;7.810;2022-11-04T17:48:04;10.88;;;6.30;;
75593;SDS011;64176;49.156;7.810;2022-11-04T17:50:49;17.40;;;9.30;;
75593;SDS011;64176;49.156;7.810;2022-11-04T17:53:35;28.77;;;17.45;;
75593;SDS011;64176;49.156;7.810;2022-11-04T17:56:22;10.05;;;6.70;;
75593;SDS011;64176;49.156;7.810;2022-11-04T17:59:07;7.80;;;6.85;;
75593;SDS011;64176;49.156;7.810;2022-11-04T18:01:53;9.45;;;7.70;;
75593;SDS011;64176;49.156;7.810;2022-11-04T18:04:37;10.32;;;7.68;;
75593;SDS011;64176;49.156;7.810;2022-11-04T18:07:21;8.98;;;7.10;;
75593;SDS011;64176;49.156;7.810;2022-11-04T18:10:05;8.00;;;6.15;;
75593;SDS011;64176;49.156;7.810;2022-11-04T18:12:49;9.80;;;6.95;;
75593;SDS011;64176;49.156;7.810;2022-11-04T18:15:33;8.93;;;6.22;;
75593;SDS011;64176;49.156;7.810;2022-11-04T18:18:20;9.05;;;7.55;;
75593;SDS011;64176;49.156;7.810;2022-11-04T18:21:24;12.73;;;8.85;;
75593;SDS011;64176;49.156;7.810;2022-11-04T18:24:09;9.93;;;7.85;;
75593;SDS011;64176;49.156;7.810;2022-11-04T18:26:55;12.73;;;9.95;;
75593;SDS011;64176;49.156;7.810;2022-11-04T18:29:43;12.18;;;8.27;;
75593;SDS011;64176;49.156;7.810;2022-11-04T18:32:27;10.52;;;8.27;;
75593;SDS011;64176;49.156;7.810;2022-11-04T18:35:11;9.27;;;6.95;;
75593;SDS011;64176;49.156;7.810;2022-11-04T18:37:55;10.23;;;7.50;;
75593;SDS011;64176;49.156;7.810;2022-11-04T18:40:39;11.80;;;7.65;;
75593;SDS011;64176;49.156;7.810;2022-11-04T18:43:23;9.00;;;6.43;;
75593;SDS011;64176;49.156;7.810;2022-11-04T18:46:08;11.70;;;6.45;;
75593;SDS011;64176;49.156;7.810;2022-11-04T18:48:53;10.77;;;6.75;;
75593;SDS011;64176;49.156;7.810;2022-11-04T18:51:38;9.82;;;8.55;;
75593;SDS011;64176;49.156;7.810;2022-11-04T18:54:22;9.18;;;6.60;;
75593;SDS011;64176;49.156;7.810;2022-11-04T18:57:06;9.10;;;6.82;;
75593;SDS011;64176;49.156;7.810;2022-11-04T18:59:54;7.07;;;5.55;;
75593;SDS011;64176;49.156;7.810;2022-11-04T19:02:39;6.25;;;5.00;;
75593;SDS011;64176;49.156;7.810;2022-11-04T19:05:23;6.60;;;4.55;;
75593;SDS011;64176;49.156;7.810;2022-11-04T19:08:08;6.38;;;4.88;;
75593;SDS011;64176;49.156;7.810;2022-11-04T19:10:52;8.32;;;6.45;;
75593;SDS011;64176;49.156;7.810;2022-11-04T19:13:36;11.95;;;7.47;;
75593;SDS011;64176;49.156;7.810;2022-11-04T19:16:23;14.20;;;10.15;;
75593;SDS011;64176;49.156;7.810;2022-11-04T19:19:10;9.05;;;5.50;;
75593;SDS011;64176;49.156;7.810;2022-11-04T19:21:58;9.95;;;6.40;;
75593;SDS011;64176;49.156;7.810;2022-11-04T19:24:42;17.27;;;10.00;;
75593;SDS011;64176;49.156;7.810;2022-11-04T19:27:25;13.55;;;9.70;;
75593;SDS011;64176;49.156;7.810;2022-11-04T19:30:10;11.05;;;9.15;;
75593;SDS011;64176;49.156;7.810;2022-11-04T19:32:55;27.27;;;20.70;;
75593;SDS011;64176;49.156;7.810;2022-11-04T19:35:42;23.65;;;17.02;;